Todd G — WRC6671 — position and weather

sailwx.info

Track history (hours):
 
Tides and Currents Weather Stations Pressure Air Temp Water Temp Dewpoint Dewpoint Depression Visibility Wind Speed Wind Dir Waves Ship Positions

Todd G

Owner: Harbor Towing & Fleeting, Inc., Metairie, LA. More information available from US FCC via Universal Licensing System and Coast Guard Vessel Documentation Center.

Last reported at 2016-Jul-27 09:33 UTC. Time now 2016-Jul-27 09:41 UTC.
Position N 30°01' W 089°55'.

Length 16 m.

Type: Towing. MMSI: 366988470.

Date/timePositionNaut miles runAvg speedWind from/ knotsBaromVisibWave heightAir tempDewpointWater temp
2016-Jul-27 09:33N 30°01' W 089°55'6 6.0
2016-Jul-27 08:33N 29°58' W 090°01'1 1.1
2016-Jul-27 07:33N 29°57' W 090°01'0 0.4
2016-Jul-27 06:33N 29°57' W 090°02'0 0.1
2016-Jul-27 05:33N 29°57' W 090°02'0 0.5
2016-Jul-27 04:33N 29°57' W 090°01'1 1.1
2016-Jul-27 03:33N 29°56' W 090°00'0 0.0
2016-Jul-27 02:33N 29°56' W 090°00'0 0.0
2016-Jul-27 01:33N 29°56' W 090°00'0 0.0
2016-Jul-27 00:33N 29°56' W 090°00'0 0.1
2016-Jul-26 23:33N 29°56' W 090°00'1 0.9
2016-Jul-26 22:33N 29°56' W 089°59'4 2.2
2016-Jul-26 20:33N 29°52' W 089°57'0 0.0
2016-Jul-26 19:33N 29°52' W 089°57'0 0.0
2016-Jul-26 18:33N 29°52' W 089°57'0 0.0
2016-Jul-26 17:33N 29°52' W 089°57'0 0.0
2016-Jul-26 16:33N 29°52' W 089°57'0 0.0
2016-Jul-26 15:33N 29°52' W 089°57'0 0.0
2016-Jul-26 14:33N 29°52' W 089°57'0 0.0
2016-Jul-26 13:34N 29°52' W 089°57'0 0.0
2016-Jul-26 12:33N 29°52' W 089°57'0 0.0
2016-Jul-26 11:33N 29°52' W 089°57'0 0.0
2016-Jul-26 10:33N 29°52' W 089°57'0 0.0
2016-Jul-26 09:33N 29°52' W 089°57'2 2.0
2016-Jul-26 08:32N 29°52' W 089°54'7 6.7
2016-Jul-26 07:33N 29°56' W 090°00'0 0.0
2016-Jul-26 06:33N 29°56' W 090°00'0 0.0
2016-Jul-26 05:33N 29°56' W 090°00'0 0.0
2016-Jul-26 04:33N 29°56' W 090°00'0 0.0
2016-Jul-26 03:33N 29°56' W 090°00'0 0.0
2016-Jul-26 02:34N 29°56' W 090°00'0 0.1
2016-Jul-26 01:33N 29°56' W 090°00'0 0.0
2016-Jul-26 00:33N 29°56' W 090°00'0 0.0
2016-Jul-25 23:33N 29°56' W 090°00'0 0.0
2016-Jul-25 22:34N 29°56' W 090°00'0 0.0
2016-Jul-25 21:33N 29°56' W 090°00'0 0.0
2016-Jul-25 20:33N 29°56' W 090°00'2 1.8
2016-Jul-25 19:33N 29°58' W 090°02'1 1.4
2016-Jul-25 18:33N 29°59' W 090°01'1 1.1
2016-Jul-25 17:33N 29°60' W 090°00'2 1.6
2016-Jul-25 16:33N 29°59' W 090°01'1 1.3
2016-Jul-25 15:34N 29°57' W 090°01'0 0.0
2016-Jul-25 14:33N 29°57' W 090°01'0 0.4
2016-Jul-25 13:33N 29°57' W 090°01'1 1.0
2016-Jul-25 12:33N 29°56' W 090°00'0 0.0
2016-Jul-25 11:33N 29°56' W 090°00'0 0.0
2016-Jul-25 10:33N 29°56' W 090°00'0 0.0
2016-Jul-25 09:33N 29°56' W 090°00'0 0.0
2016-Jul-25 08:33N 29°56' W 090°00'0 0.0
2016-Jul-25 07:33N 29°56' W 090°00'0 0.0
2016-Jul-25 06:33N 29°56' W 090°00'0 0.0
2016-Jul-25 05:33N 29°56' W 090°00'0 0.0
2016-Jul-25 04:33N 29°56' W 090°00'0 0.0
2016-Jul-25 03:33N 29°56' W 090°00'0 0.0
2016-Jul-25 02:33N 29°56' W 090°00'0 0.0
2016-Jul-25 01:33N 29°56' W 090°00'1 1.0
2016-Jul-25 00:33N 29°56' W 089°59'1 1.2
2016-Jul-24 23:33N 29°55' W 089°59'2 1.7
2016-Jul-24 22:33N 29°54' W 089°60'2 1.8
2016-Jul-24 21:34N 29°55' W 089°58'1 0.9
2016-Jul-24 20:33N 29°55' W 089°57'0 0.0
2016-Jul-24 19:33N 29°55' W 089°57'3 2.8
2016-Jul-24 18:33N 29°56' W 090°00'0 0.0
2016-Jul-24 17:19N 29°56' W 090°00'0 0.0
2016-Jul-24 16:32N 29°56' W 090°00'0 0.0
2016-Jul-24 15:33N 29°56' W 090°00'0 0.0
2016-Jul-24 14:33N 29°56' W 090°00'0 0.0
2016-Jul-24 13:33N 29°56' W 090°00'2 2.2
2016-Jul-24 12:33N 29°58' W 090°02'1 0.8
2016-Jul-24 11:33N 29°58' W 090°02'0 0.0
2016-Jul-24 10:33N 29°58' W 090°02'2 1.9
2016-Jul-24 09:33N 29°56' W 090°00'0 0.0
2016-Jul-24 08:33N 29°56' W 090°00'0 0.0
2016-Jul-24 07:33N 29°56' W 090°00'0 0.0
2016-Jul-24 06:33N 29°56' W 090°00'0 0.0
2016-Jul-24 05:33N 29°56' W 090°00'0 0.0
2016-Jul-24 04:33N 29°56' W 090°00'1 0.6
2016-Jul-24 03:33N 29°56' W 089°60'2 2.3
2016-Jul-24 02:33N 29°55' W 089°57'5 4.6
2016-Jul-24 01:33N 29°58' W 090°02'0 0.4
2016-Jul-24 00:33N 29°58' W 090°01'2 1.6
2016-Jul-23 23:33N 29°60' W 090°01'1 0.5
2016-Jul-23 22:33N 29°60' W 090°00'0 0.0
2016-Jul-23 21:33N 29°60' W 090°00'2 1.8
2016-Jul-23 20:33N 29°58' W 090°01'1 0.7
2016-Jul-23 19:33N 29°58' W 090°02'0 0.5
2016-Jul-23 18:34N 29°57' W 090°01'0 0.0
2016-Jul-23 17:33N 29°57' W 090°01'1 1.4
2016-Jul-23 16:33N 29°56' W 090°00'0 0.2
2016-Jul-23 15:33N 29°56' W 090°00'3 2.7
2016-Jul-23 14:33N 29°59' W 090°01'6 5.5
2016-Jul-23 13:28N 30°01' W 089°55'0 0.2
2016-Jul-23 11:33N 30°01' W 089°54'6 5.7
2016-Jul-23 10:33N 29°60' W 090°01'3 2.6
2016-Jul-23 09:33N 29°57' W 090°01'1 1.2
2016-Jul-23 08:33N 29°56' W 090°00'0 0.1
2016-Jul-23 07:33N 29°56' W 090°00'0 0.0
2016-Jul-23 06:33N 29°56' W 090°00'0 0.0
2016-Jul-23 04:34N 29°56' W 090°00'2 1.5
2016-Jul-23 03:33N 29°57' W 090°02'1 0.7
2016-Jul-23 02:33N 29°58' W 090°02'1 1.0
2016-Jul-23 01:33N 29°59' W 090°01'0 0.5
2016-Jul-23 00:33N 29°59' W 090°01'3 3.2
2016-Jul-22 23:33N 29°56' W 090°00'0 0.0
2016-Jul-22 22:33N 29°56' W 090°00'0 0.0
2016-Jul-22 21:33N 29°56' W 090°00'0 0.0
2016-Jul-22 20:33N 29°56' W 090°00'0 0.0
2016-Jul-22 19:33N 29°56' W 090°00'0 0.0
2016-Jul-22 18:33N 29°56' W 090°00'0 0.0
2016-Jul-22 17:33N 29°56' W 090°00'0 0.0
2016-Jul-22 16:33N 29°56' W 090°00'0 0.0
2016-Jul-22 15:34N 29°56' W 090°00'0 0.0
2016-Jul-22 14:33N 29°56' W 090°00'2 2.1
2016-Jul-22 13:31N 29°55' W 089°58'1 1.0
2016-Jul-22 12:33N 29°54' W 089°59'0 0.2
2016-Jul-22 11:33N 29°54' W 089°59'1 1.3
2016-Jul-22 10:33N 29°55' W 089°58'1 0.7
2016-Jul-22 09:33N 29°55' W 089°57'2 2.4
2016-Jul-22 08:33N 29°56' W 089°60'0 0.0
2016-Jul-22 07:34N 29°56' W 089°60'0 0.0
2016-Jul-22 05:33N 29°56' W 089°60'0 0.3
2016-Jul-22 04:33N 29°56' W 090°00'0 0.0
2016-Jul-22 03:33N 29°56' W 090°00'0 0.0
2016-Jul-22 02:33N 29°56' W 090°00'0 0.0
2016-Jul-22 01:33N 29°56' W 090°00'0 0.0
2016-Jul-22 00:33N 29°56' W 090°00'0 0.0
2016-Jul-21 23:33N 29°56' W 090°00'0 0.0
2016-Jul-21 22:33N 29°56' W 090°00'0 0.0
2016-Jul-21 21:33N 29°56' W 090°00'0 0.0
2016-Jul-21 20:33N 29°56' W 090°00'0 0.0
2016-Jul-21 19:33N 29°56' W 090°00'0 0.0
2016-Jul-21 18:33N 29°56' W 090°00'0 0.3
2016-Jul-21 17:33N 29°56' W 089°60'1 0.6
2016-Jul-21 16:33N 29°56' W 090°00'2 1.9
2016-Jul-21 15:33N 29°58' W 090°02'3 3.4
2016-Jul-21 14:33N 29°60' W 089°58'2 0.7
2016-Jul-21 11:33N 30°00' W 089°56'4 4.5
2016-Jul-21 10:33N 29°59' W 090°01'2 1.6
2016-Jul-21 09:33N 29°58' W 090°02'2 2.0
2016-Jul-21 08:33N 29°56' W 090°00'1 0.8
2016-Jul-21 07:33N 29°56' W 089°59'1 1.0
2016-Jul-21 06:33N 29°56' W 090°00'0 0.0
2016-Jul-21 05:33N 29°56' W 090°00'0 0.0
2016-Jul-21 04:33N 29°56' W 090°00'2 1.9
2016-Jul-21 03:33N 29°58' W 090°02'1 0.9
2016-Jul-21 02:33N 29°59' W 090°01'2 1.5
2016-Jul-21 01:34N 29°60' W 090°00'1 0.8
2016-Jul-21 00:33N 29°59' W 090°01'2 2.3
2016-Jul-20 23:33N 29°57' W 090°01'2 1.8
2016-Jul-20 22:33N 29°56' W 089°60'1 0.5
2016-Jul-20 21:33N 29°56' W 090°00'0 0.0
2016-Jul-20 20:33N 29°56' W 090°00'3 2.7
2016-Jul-20 19:33N 29°59' W 090°01'4 4.3
2016-Jul-20 18:32N 30°00' W 089°56'3 2.6
2016-Jul-20 17:30N 30°01' W 089°53'1 1.5
2016-Jul-20 16:33N 30°01' W 089°55'5 5.3
2016-Jul-20 15:33N 29°60' W 090°01'2 2.3
2016-Jul-20 14:33N 29°57' W 090°01'0 0.1
2016-Jul-20 13:33N 29°57' W 090°02'2 1.9
2016-Jul-20 12:33N 29°56' W 089°60'0 0.5
2016-Jul-20 11:33N 29°56' W 090°00'0 0.0
2016-Jul-20 10:33N 29°56' W 090°00'0 0.0
2016-Jul-20 09:34N 29°56' W 090°00'0 0.0
2016-Jul-20 08:33N 29°56' W 090°00'0 0.0
2016-Jul-20 07:33N 29°56' W 090°00'0 0.0
2016-Jul-20 06:34N 29°56' W 090°00'0 0.0
2016-Jul-20 05:33N 29°56' W 090°00'0 0.0
2016-Jul-20 04:33N 29°56' W 090°00'0 0.0
2016-Jul-20 03:33N 29°56' W 090°00'0 0.0
2016-Jul-20 02:33N 29°56' W 090°00'0 0.0
2016-Jul-20 01:34N 29°56' W 090°00'0 0.0
2016-Jul-20 00:33N 29°56' W 090°00'0 0.0
2016-Jul-19 23:33N 29°56' W 090°00'0 0.0
2016-Jul-19 22:33N 29°56' W 090°00'0 0.0
2016-Jul-19 21:33N 29°56' W 090°00'0 0.0
2016-Jul-19 20:33N 29°56' W 090°00'0 0.0
2016-Jul-19 19:33N 29°56' W 090°00'0 0.0
2016-Jul-19 18:33N 29°56' W 090°00'0 0.0
2016-Jul-19 17:33N 29°56' W 090°00'0 0.0
2016-Jul-19 16:33N 29°56' W 090°00'0 0.0
2016-Jul-19 15:33N 29°56' W 090°00'0 0.0
2016-Jul-19 14:33N 29°56' W 090°00'0 0.0
2016-Jul-19 13:33N 29°56' W 090°00'0 0.0
2016-Jul-19 12:33N 29°56' W 090°00'0 0.0
2016-Jul-19 11:33N 29°56' W 090°00'0 0.0
2016-Jul-19 10:33N 29°56' W 090°00'0 0.0
2016-Jul-19 09:33N 29°56' W 090°00'0 0.0
2016-Jul-19 08:33N 29°56' W 090°00'0 0.0
2016-Jul-19 07:33N 29°56' W 090°00'0 0.0
2016-Jul-19 04:33N 29°56' W 090°00'0 0.0
2016-Jul-19 03:33N 29°56' W 090°00'0 0.0
2016-Jul-19 02:33N 29°56' W 090°00'0 0.0
2016-Jul-19 01:33N 29°56' W 090°00'0 0.0
2016-Jul-19 00:34N 29°56' W 090°00'0 0.0
2016-Jul-18 23:33N 29°56' W 090°00'0 0.0
2016-Jul-18 22:33N 29°56' W 090°00'0 0.0
2016-Jul-18 21:33N 29°56' W 090°00'0 0.0
2016-Jul-18 20:33N 29°56' W 090°00'0 0.0
2016-Jul-18 19:34N 29°56' W 090°00'0 0.0
2016-Jul-18 18:33N 29°56' W 090°00'0 0.0
2016-Jul-18 17:33N 29°56' W 090°00'0 0.0
2016-Jul-18 16:33N 29°56' W 090°00'0 0.0
2016-Jul-18 15:33N 29°56' W 090°00'0 0.0
2016-Jul-18 14:33N 29°56' W 090°00'0 0.0
2016-Jul-18 13:33N 29°56' W 090°00'0 0.0
2016-Jul-18 04:33N 29°56' W 090°00'0 0.0
2016-Jul-18 03:33N 29°56' W 090°00'0 0.0
2016-Jul-18 02:33N 29°56' W 090°00'0 0.0
2016-Jul-18 01:33N 29°56' W 090°00'0 0.0
2016-Jul-18 00:33N 29°56' W 090°00'0 0.0
2016-Jul-17 23:33N 29°56' W 090°00'0 0.0
2016-Jul-17 22:33N 29°56' W 090°00'0 0.0
2016-Jul-17 21:33N 29°56' W 090°00'0 0.0
2016-Jul-17 20:34N 29°56' W 090°00'0 0.0
2016-Jul-17 19:33N 29°56' W 090°00'0 0.0
2016-Jul-17 18:33N 29°56' W 090°00'0 0.0
2016-Jul-17 17:33N 29°56' W 090°00'0 0.0
2016-Jul-17 16:33N 29°56' W 090°00'0 0.0
2016-Jul-17 15:33N 29°56' W 090°00'0 0.0
2016-Jul-17 14:33N 29°56' W 090°00'0 0.0
2016-Jul-17 13:33N 29°56' W 090°00'0 0.0
2016-Jul-17 12:33N 29°56' W 090°00'0 0.0
2016-Jul-17 11:33N 29°56' W 090°00'0 0.0
2016-Jul-17 10:33N 29°56' W 090°00'0 0.0
2016-Jul-17 09:33N 29°56' W 090°00'  
Track history (hours):
 
Tides and Currents Weather Stations Pressure Air Temp Water Temp Dewpoint Dewpoint Depression Visibility Wind Speed Wind Dir Waves Ship Positions

Todd G

Owner: Harbor Towing & Fleeting, Inc., Metairie, LA. More information available from US FCC via Universal Licensing System and Coast Guard Vessel Documentation Center.

Last reported at 2016-Jul-27 09:33 UTC. Time now 2016-Jul-27 09:41 UTC.
Position N 30°01' W 089°55'.

Length 16 m.

Type: Towing. MMSI: 366988470.

Date/timePositionNaut miles runAvg speedWind from/ knotsBaromVisibWave heightAir tempDewpointWater temp
2016-Jul-27 09:33N 30°01' W 089°55'6 6.0
2016-Jul-27 08:33N 29°58' W 090°01'1 1.1
2016-Jul-27 07:33N 29°57' W 090°01'0 0.4
2016-Jul-27 06:33N 29°57' W 090°02'0 0.1
2016-Jul-27 05:33N 29°57' W 090°02'0 0.5
2016-Jul-27 04:33N 29°57' W 090°01'1 1.1
2016-Jul-27 03:33N 29°56' W 090°00'0 0.0
2016-Jul-27 02:33N 29°56' W 090°00'0 0.0
2016-Jul-27 01:33N 29°56' W 090°00'0 0.0
2016-Jul-27 00:33N 29°56' W 090°00'0 0.1
2016-Jul-26 23:33N 29°56' W 090°00'1 0.9
2016-Jul-26 22:33N 29°56' W 089°59'4 2.2
2016-Jul-26 20:33N 29°52' W 089°57'0 0.0
2016-Jul-26 19:33N 29°52' W 089°57'0 0.0
2016-Jul-26 18:33N 29°52' W 089°57'0 0.0
2016-Jul-26 17:33N 29°52' W 089°57'0 0.0
2016-Jul-26 16:33N 29°52' W 089°57'0 0.0
2016-Jul-26 15:33N 29°52' W 089°57'0 0.0
2016-Jul-26 14:33N 29°52' W 089°57'0 0.0
2016-Jul-26 13:34N 29°52' W 089°57'0 0.0
2016-Jul-26 12:33N 29°52' W 089°57'0 0.0
2016-Jul-26 11:33N 29°52' W 089°57'0 0.0
2016-Jul-26 10:33N 29°52' W 089°57'0 0.0
2016-Jul-26 09:33N 29°52' W 089°57'2 2.0
2016-Jul-26 08:32N 29°52' W 089°54'7 6.7
2016-Jul-26 07:33N 29°56' W 090°00'0 0.0
2016-Jul-26 06:33N 29°56' W 090°00'0 0.0
2016-Jul-26 05:33N 29°56' W 090°00'0 0.0
2016-Jul-26 04:33N 29°56' W 090°00'0 0.0
2016-Jul-26 03:33N 29°56' W 090°00'0 0.0
2016-Jul-26 02:34N 29°56' W 090°00'0 0.1
2016-Jul-26 01:33N 29°56' W 090°00'0 0.0
2016-Jul-26 00:33N 29°56' W 090°00'0 0.0
2016-Jul-25 23:33N 29°56' W 090°00'0 0.0
2016-Jul-25 22:34N 29°56' W 090°00'0 0.0
2016-Jul-25 21:33N 29°56' W 090°00'0 0.0
2016-Jul-25 20:33N 29°56' W 090°00'2 1.8
2016-Jul-25 19:33N 29°58' W 090°02'1 1.4
2016-Jul-25 18:33N 29°59' W 090°01'1 1.1
2016-Jul-25 17:33N 29°60' W 090°00'2 1.6
2016-Jul-25 16:33N 29°59' W 090°01'1 1.3
2016-Jul-25 15:34N 29°57' W 090°01'0 0.0
2016-Jul-25 14:33N 29°57' W 090°01'0 0.4
2016-Jul-25 13:33N 29°57' W 090°01'1 1.0
2016-Jul-25 12:33N 29°56' W 090°00'0 0.0
2016-Jul-25 11:33N 29°56' W 090°00'0 0.0
2016-Jul-25 10:33N 29°56' W 090°00'0 0.0
2016-Jul-25 09:33N 29°56' W 090°00'0 0.0
2016-Jul-25 08:33N 29°56' W 090°00'0 0.0
2016-Jul-25 07:33N 29°56' W 090°00'0 0.0
2016-Jul-25 06:33N 29°56' W 090°00'0 0.0
2016-Jul-25 05:33N 29°56' W 090°00'0 0.0
2016-Jul-25 04:33N 29°56' W 090°00'0 0.0
2016-Jul-25 03:33N 29°56' W 090°00'0 0.0
2016-Jul-25 02:33N 29°56' W 090°00'0 0.0
2016-Jul-25 01:33N 29°56' W 090°00'1 1.0
2016-Jul-25 00:33N 29°56' W 089°59'1 1.2
2016-Jul-24 23:33N 29°55' W 089°59'2 1.7
2016-Jul-24 22:33N 29°54' W 089°60'2 1.8
2016-Jul-24 21:34N 29°55' W 089°58'1 0.9
2016-Jul-24 20:33N 29°55' W 089°57'0 0.0
2016-Jul-24 19:33N 29°55' W 089°57'3 2.8
2016-Jul-24 18:33N 29°56' W 090°00'0 0.0
2016-Jul-24 17:19N 29°56' W 090°00'0 0.0
2016-Jul-24 16:32N 29°56' W 090°00'0 0.0
2016-Jul-24 15:33N 29°56' W 090°00'0 0.0
2016-Jul-24 14:33N 29°56' W 090°00'0 0.0
2016-Jul-24 13:33N 29°56' W 090°00'2 2.2
2016-Jul-24 12:33N 29°58' W 090°02'1 0.8
2016-Jul-24 11:33N 29°58' W 090°02'0 0.0
2016-Jul-24 10:33N 29°58' W 090°02'2 1.9
2016-Jul-24 09:33N 29°56' W 090°00'0 0.0
2016-Jul-24 08:33N 29°56' W 090°00'0 0.0
2016-Jul-24 07:33N 29°56' W 090°00'0 0.0
2016-Jul-24 06:33N 29°56' W 090°00'0 0.0
2016-Jul-24 05:33N 29°56' W 090°00'0 0.0
2016-Jul-24 04:33N 29°56' W 090°00'1 0.6
2016-Jul-24 03:33N 29°56' W 089°60'2 2.3
2016-Jul-24 02:33N 29°55' W 089°57'5 4.6
2016-Jul-24 01:33N 29°58' W 090°02'0 0.4
2016-Jul-24 00:33N 29°58' W 090°01'2 1.6
2016-Jul-23 23:33N 29°60' W 090°01'1 0.5
2016-Jul-23 22:33N 29°60' W 090°00'0 0.0
2016-Jul-23 21:33N 29°60' W 090°00'2 1.8
2016-Jul-23 20:33N 29°58' W 090°01'1 0.7
2016-Jul-23 19:33N 29°58' W 090°02'0 0.5
2016-Jul-23 18:34N 29°57' W 090°01'0 0.0
2016-Jul-23 17:33N 29°57' W 090°01'1 1.4
2016-Jul-23 16:33N 29°56' W 090°00'0 0.2
2016-Jul-23 15:33N 29°56' W 090°00'3 2.7
2016-Jul-23 14:33N 29°59' W 090°01'6 5.5
2016-Jul-23 13:28N 30°01' W 089°55'0 0.2
2016-Jul-23 11:33N 30°01' W 089°54'6 5.7
2016-Jul-23 10:33N 29°60' W 090°01'3 2.6
2016-Jul-23 09:33N 29°57' W 090°01'1 1.2
2016-Jul-23 08:33N 29°56' W 090°00'0 0.1
2016-Jul-23 07:33N 29°56' W 090°00'0 0.0
2016-Jul-23 06:33N 29°56' W 090°00'0 0.0
2016-Jul-23 04:34N 29°56' W 090°00'2 1.5
2016-Jul-23 03:33N 29°57' W 090°02'1 0.7
2016-Jul-23 02:33N 29°58' W 090°02'1 1.0
2016-Jul-23 01:33N 29°59' W 090°01'0 0.5
2016-Jul-23 00:33N 29°59' W 090°01'3 3.2
2016-Jul-22 23:33N 29°56' W 090°00'0 0.0
2016-Jul-22 22:33N 29°56' W 090°00'0 0.0
2016-Jul-22 21:33N 29°56' W 090°00'0 0.0
2016-Jul-22 20:33N 29°56' W 090°00'0 0.0
2016-Jul-22 19:33N 29°56' W 090°00'0 0.0
2016-Jul-22 18:33N 29°56' W 090°00'0 0.0
2016-Jul-22 17:33N 29°56' W 090°00'0 0.0
2016-Jul-22 16:33N 29°56' W 090°00'0 0.0
2016-Jul-22 15:34N 29°56' W 090°00'0 0.0
2016-Jul-22 14:33N 29°56' W 090°00'2 2.1
2016-Jul-22 13:31N 29°55' W 089°58'1 1.0
2016-Jul-22 12:33N 29°54' W 089°59'0 0.2
2016-Jul-22 11:33N 29°54' W 089°59'1 1.3
2016-Jul-22 10:33N 29°55' W 089°58'1 0.7
2016-Jul-22 09:33N 29°55' W 089°57'2 2.4
2016-Jul-22 08:33N 29°56' W 089°60'0 0.0
2016-Jul-22 07:34N 29°56' W 089°60'0 0.0
2016-Jul-22 05:33N 29°56' W 089°60'0 0.3
2016-Jul-22 04:33N 29°56' W 090°00'0 0.0
2016-Jul-22 03:33N 29°56' W 090°00'0 0.0
2016-Jul-22 02:33N 29°56' W 090°00'0 0.0
2016-Jul-22 01:33N 29°56' W 090°00'0 0.0
2016-Jul-22 00:33N 29°56' W 090°00'0 0.0
2016-Jul-21 23:33N 29°56' W 090°00'0 0.0
2016-Jul-21 22:33N 29°56' W 090°00'0 0.0
2016-Jul-21 21:33N 29°56' W 090°00'0 0.0
2016-Jul-21 20:33N 29°56' W 090°00'0 0.0
2016-Jul-21 19:33N 29°56' W 090°00'0 0.0
2016-Jul-21 18:33N 29°56' W 090°00'0 0.3
2016-Jul-21 17:33N 29°56' W 089°60'1 0.6
2016-Jul-21 16:33N 29°56' W 090°00'2 1.9
2016-Jul-21 15:33N 29°58' W 090°02'3 3.4
2016-Jul-21 14:33N 29°60' W 089°58'2 0.7
2016-Jul-21 11:33N 30°00' W 089°56'4 4.5
2016-Jul-21 10:33N 29°59' W 090°01'2 1.6
2016-Jul-21 09:33N 29°58' W 090°02'2 2.0
2016-Jul-21 08:33N 29°56' W 090°00'1 0.8
2016-Jul-21 07:33N 29°56' W 089°59'1 1.0
2016-Jul-21 06:33N 29°56' W 090°00'0 0.0
2016-Jul-21 05:33N 29°56' W 090°00'0 0.0
2016-Jul-21 04:33N 29°56' W 090°00'2 1.9
2016-Jul-21 03:33N 29°58' W 090°02'1 0.9
2016-Jul-21 02:33N 29°59' W 090°01'2 1.5
2016-Jul-21 01:34N 29°60' W 090°00'1 0.8
2016-Jul-21 00:33N 29°59' W 090°01'2 2.3
2016-Jul-20 23:33N 29°57' W 090°01'2 1.8
2016-Jul-20 22:33N 29°56' W 089°60'1 0.5
2016-Jul-20 21:33N 29°56' W 090°00'0 0.0
2016-Jul-20 20:33N 29°56' W 090°00'3 2.7
2016-Jul-20 19:33N 29°59' W 090°01'4 4.3
2016-Jul-20 18:32N 30°00' W 089°56'3 2.6
2016-Jul-20 17:30N 30°01' W 089°53'1 1.5
2016-Jul-20 16:33N 30°01' W 089°55'5 5.3
2016-Jul-20 15:33N 29°60' W 090°01'2 2.3
2016-Jul-20 14:33N 29°57' W 090°01'0 0.1
2016-Jul-20 13:33N 29°57' W 090°02'2 1.9
2016-Jul-20 12:33N 29°56' W 089°60'0 0.5
2016-Jul-20 11:33N 29°56' W 090°00'0 0.0
2016-Jul-20 10:33N 29°56' W 090°00'0 0.0
2016-Jul-20 09:34N 29°56' W 090°00'0 0.0
2016-Jul-20 08:33N 29°56' W 090°00'0 0.0
2016-Jul-20 07:33N 29°56' W 090°00'0 0.0
2016-Jul-20 06:34N 29°56' W 090°00'0 0.0
2016-Jul-20 05:33N 29°56' W 090°00'0 0.0
2016-Jul-20 04:33N 29°56' W 090°00'0 0.0
2016-Jul-20 03:33N 29°56' W 090°00'0 0.0
2016-Jul-20 02:33N 29°56' W 090°00'0 0.0
2016-Jul-20 01:34N 29°56' W 090°00'0 0.0
2016-Jul-20 00:33N 29°56' W 090°00'0 0.0
2016-Jul-19 23:33N 29°56' W 090°00'0 0.0
2016-Jul-19 22:33N 29°56' W 090°00'0 0.0
2016-Jul-19 21:33N 29°56' W 090°00'0 0.0
2016-Jul-19 20:33N 29°56' W 090°00'0 0.0
2016-Jul-19 19:33N 29°56' W 090°00'0 0.0
2016-Jul-19 18:33N 29°56' W 090°00'0 0.0
2016-Jul-19 17:33N 29°56' W 090°00'0 0.0
2016-Jul-19 16:33N 29°56' W 090°00'0 0.0
2016-Jul-19 15:33N 29°56' W 090°00'0 0.0
2016-Jul-19 14:33N 29°56' W 090°00'0 0.0
2016-Jul-19 13:33N 29°56' W 090°00'0 0.0
2016-Jul-19 12:33N 29°56' W 090°00'0 0.0
2016-Jul-19 11:33N 29°56' W 090°00'0 0.0
2016-Jul-19 10:33N 29°56' W 090°00'0 0.0
2016-Jul-19 09:33N 29°56' W 090°00'0 0.0
2016-Jul-19 08:33N 29°56' W 090°00'0 0.0
2016-Jul-19 07:33N 29°56' W 090°00'0 0.0
2016-Jul-19 04:33N 29°56' W 090°00'0 0.0
2016-Jul-19 03:33N 29°56' W 090°00'0 0.0
2016-Jul-19 02:33N 29°56' W 090°00'0 0.0
2016-Jul-19 01:33N 29°56' W 090°00'0 0.0
2016-Jul-19 00:34N 29°56' W 090°00'0 0.0
2016-Jul-18 23:33N 29°56' W 090°00'0 0.0
2016-Jul-18 22:33N 29°56' W 090°00'0 0.0
2016-Jul-18 21:33N 29°56' W 090°00'0 0.0
2016-Jul-18 20:33N 29°56' W 090°00'0 0.0
2016-Jul-18 19:34N 29°56' W 090°00'0 0.0
2016-Jul-18 18:33N 29°56' W 090°00'0 0.0
2016-Jul-18 17:33N 29°56' W 090°00'0 0.0
2016-Jul-18 16:33N 29°56' W 090°00'0 0.0
2016-Jul-18 15:33N 29°56' W 090°00'0 0.0
2016-Jul-18 14:33N 29°56' W 090°00'0 0.0
2016-Jul-18 13:33N 29°56' W 090°00'0 0.0
2016-Jul-18 04:33N 29°56' W 090°00'0 0.0
2016-Jul-18 03:33N 29°56' W 090°00'0 0.0
2016-Jul-18 02:33N 29°56' W 090°00'0 0.0
2016-Jul-18 01:33N 29°56' W 090°00'0 0.0
2016-Jul-18 00:33N 29°56' W 090°00'0 0.0
2016-Jul-17 23:33N 29°56' W 090°00'0 0.0
2016-Jul-17 22:33N 29°56' W 090°00'0 0.0
2016-Jul-17 21:33N 29°56' W 090°00'0 0.0
2016-Jul-17 20:34N 29°56' W 090°00'0 0.0
2016-Jul-17 19:33N 29°56' W 090°00'0 0.0
2016-Jul-17 18:33N 29°56' W 090°00'0 0.0
2016-Jul-17 17:33N 29°56' W 090°00'0 0.0
2016-Jul-17 16:33N 29°56' W 090°00'0 0.0
2016-Jul-17 15:33N 29°56' W 090°00'0 0.0
2016-Jul-17 14:33N 29°56' W 090°00'0 0.0
2016-Jul-17 13:33N 29°56' W 090°00'0 0.0
2016-Jul-17 12:33N 29°56' W 090°00'0 0.0
2016-Jul-17 11:33N 29°56' W 090°00'0 0.0
2016-Jul-17 10:33N 29°56' W 090°00'0 0.0
2016-Jul-17 09:33N 29°56' W 090°00'  

Dump ship's entire track history